createdAt,value
2019-05-25T00:01:25.822Z,11.50
2019-05-25T00:03:54.269Z,11.50
2019-05-25T00:06:22.761Z,11.50
2019-05-25T00:08:51.238Z,11.50
2019-05-25T00:11:19.705Z,11.60
2019-05-25T00:13:48.157Z,11.60
2019-05-25T00:16:16.657Z,11.60
2019-05-25T00:18:45.105Z,11.60
2019-05-25T00:21:14.308Z,11.70
2019-05-25T00:23:42.849Z,11.70
2019-05-25T00:26:11.298Z,11.70
2019-05-25T00:28:39.746Z,11.70
2019-05-25T00:31:08.257Z,11.70
2019-05-25T00:33:36.707Z,11.70
2019-05-25T00:36:05.164Z,11.60
2019-05-25T00:38:33.653Z,11.60
2019-05-25T00:41:02.168Z,11.60
2019-05-25T00:43:30.624Z,11.50
2019-05-25T00:45:59.073Z,11.50
2019-05-25T00:48:27.569Z,11.40
2019-05-25T00:50:56.018Z,11.40
2019-05-25T00:53:24.536Z,11.40
2019-05-25T00:55:52.989Z,11.40
2019-05-25T00:58:21.544Z,11.40
2019-05-25T01:00:50.056Z,11.40
2019-05-25T01:03:18.509Z,11.40
2019-05-25T01:05:46.956Z,11.30
2019-05-25T01:08:15.449Z,11.30
2019-05-25T01:10:43.901Z,11.30
2019-05-25T01:13:12.352Z,11.20
2019-05-25T01:15:40.853Z,11.20
2019-05-25T01:18:09.308Z,11.20
2019-05-25T01:20:37.756Z,11.20
2019-05-25T01:23:06.381Z,11.20
2019-05-25T01:25:34.872Z,11.20
2019-05-25T01:28:03.372Z,11.10
2019-05-25T01:30:31.816Z,11.20
2019-05-25T01:33:00.329Z,11.20
2019-05-25T01:35:28.825Z,11.10
2019-05-25T01:37:57.277Z,11.10
2019-05-25T01:40:25.998Z,11.10
2019-05-25T01:42:54.489Z,11.00
2019-05-25T01:45:22.925Z,11.00
2019-05-25T01:47:51.480Z,10.90
2019-05-25T01:50:19.914Z,10.90
2019-05-25T01:52:48.391Z,10.90
2019-05-25T01:55:16.890Z,10.90
2019-05-25T01:57:45.389Z,10.90
2019-05-25T02:00:15.506Z,10.90
2019-05-25T02:02:43.990Z,10.80
2019-05-25T02:05:12.492Z,10.80
2019-05-25T02:07:40.941Z,10.80
2019-05-25T02:10:09.457Z,10.80
2019-05-25T02:12:37.949Z,10.80
2019-05-25T02:15:09.321Z,10.80
2019-05-25T02:17:37.828Z,10.80
2019-05-25T02:20:09.086Z,10.80
2019-05-25T02:22:37.560Z,10.80
2019-05-25T02:25:17.839Z,10.70
2019-05-25T02:27:37.777Z,10.70
2019-05-25T02:30:07.218Z,10.70
2019-05-25T02:32:35.658Z,10.70
2019-05-25T02:35:05.948Z,10.70
2019-05-25T02:37:34.448Z,10.60
2019-05-25T02:40:04.477Z,10.60
2019-05-25T02:42:32.957Z,10.60
2019-05-25T02:45:01.446Z,10.60
2019-05-25T02:47:29.936Z,10.60
2019-05-25T02:49:58.392Z,10.60
2019-05-25T02:52:26.848Z,10.60
2019-05-25T02:54:55.353Z,10.60
2019-05-25T02:57:23.803Z,10.60
2019-05-25T02:59:52.252Z,10.60
2019-05-25T03:02:20.987Z,10.50
2019-05-25T03:04:49.477Z,10.50
2019-05-25T03:07:17.925Z,10.50
2019-05-25T03:09:46.373Z,10.50
2019-05-25T03:12:14.908Z,10.50
2019-05-25T03:14:43.404Z,10.50
2019-05-25T03:17:11.847Z,10.50
2019-05-25T03:19:40.341Z,10.40
2019-05-25T03:22:08.861Z,10.40
2019-05-25T03:24:37.345Z,10.40
2019-05-25T03:27:05.852Z,10.40
2019-05-25T03:29:34.294Z,10.40
2019-05-25T03:32:02.807Z,10.40
2019-05-25T03:34:31.296Z,10.40
2019-05-25T03:36:59.773Z,10.50
2019-05-25T03:39:28.280Z,10.50
2019-05-25T03:41:56.748Z,10.50
2019-05-25T03:44:25.248Z,10.50
2019-05-25T03:46:53.700Z,10.50
2019-05-25T03:49:22.188Z,10.60
2019-05-25T03:51:50.641Z,10.70
2019-05-25T03:54:19.141Z,10.70
2019-05-25T03:56:47.592Z,10.60
2019-05-25T03:59:16.037Z,10.70
2019-05-25T04:01:44.532Z,10.70
2019-05-25T04:04:12.981Z,10.80
2019-05-25T04:06:41.491Z,10.90
2019-05-25T04:09:09.984Z,10.90
2019-05-25T04:11:38.497Z,11.00
2019-05-25T04:14:06.989Z,11.00
2019-05-25T04:16:35.499Z,11.00
2019-05-25T04:19:04.041Z,11.00
2019-05-25T04:21:32.514Z,11.10
2019-05-25T04:24:00.961Z,11.10
2019-05-25T04:26:29.469Z,11.20
2019-05-25T04:28:57.954Z,11.30
2019-05-25T04:31:26.408Z,11.30
2019-05-25T04:33:54.909Z,11.40
2019-05-25T04:36:23.356Z,11.40
2019-05-25T04:38:51.839Z,11.50
2019-05-25T04:41:20.305Z,11.50
2019-05-25T04:43:48.753Z,11.60
2019-05-25T04:46:17.257Z,11.70
2019-05-25T04:48:45.701Z,11.70
2019-05-25T04:51:14.145Z,11.80
2019-05-25T04:53:42.749Z,11.80
2019-05-25T04:56:11.192Z,11.90
2019-05-25T04:58:39.636Z,11.90
2019-05-25T05:01:08.137Z,11.90
2019-05-25T05:03:36.586Z,12.00
2019-05-25T05:06:05.038Z,12.00
2019-05-25T05:08:35.815Z,11.90
2019-05-25T05:11:03.714Z,12.00
2019-05-25T05:13:32.189Z,12.00
2019-05-25T05:16:00.693Z,12.10
2019-05-25T05:18:29.139Z,12.20
2019-05-25T05:20:57.577Z,12.20
2019-05-25T05:23:26.097Z,12.20
2019-05-25T05:25:54.552Z,12.30
2019-05-25T05:28:22.997Z,12.30
2019-05-25T05:30:51.485Z,12.30
2019-05-25T05:33:19.986Z,12.30
2019-05-25T05:35:48.429Z,12.40
2019-05-25T05:38:16.884Z,12.40
2019-05-25T05:40:45.382Z,12.40
2019-05-25T05:43:13.850Z,12.40
2019-05-25T05:45:42.977Z,12.40
2019-05-25T05:48:11.598Z,12.40
2019-05-25T05:50:40.040Z,12.30
2019-05-25T05:53:08.519Z,12.40
2019-05-25T05:55:36.989Z,12.40
2019-05-25T05:58:05.433Z,12.40
2019-05-25T06:00:33.921Z,12.40
2019-05-25T06:03:02.413Z,12.40
2019-05-25T06:05:30.997Z,12.50
2019-05-25T06:07:59.449Z,12.50
2019-05-25T06:10:27.898Z,12.60
2019-05-25T06:12:56.480Z,12.60
2019-05-25T06:15:24.929Z,12.60
2019-05-25T06:17:53.409Z,12.60
2019-05-25T06:20:21.925Z,12.60
2019-05-25T06:22:50.417Z,12.50
2019-05-25T06:25:18.867Z,12.50
2019-05-25T06:27:47.398Z,12.40
2019-05-25T06:30:17.136Z,12.40
2019-05-25T06:32:45.661Z,12.30
2019-05-25T06:35:14.317Z,12.30
2019-05-25T06:37:42.823Z,12.30
2019-05-25T06:40:11.307Z,12.40
2019-05-25T06:42:39.829Z,12.40
2019-05-25T06:45:08.308Z,12.50
2019-05-25T06:47:36.761Z,12.60
2019-05-25T06:50:08.230Z,12.60
2019-05-25T06:52:36.765Z,12.60
2019-05-25T06:55:08.263Z,12.70
2019-05-25T06:57:43.287Z,12.70
2019-05-25T07:00:07.454Z,12.80
2019-05-25T07:02:35.948Z,12.90
2019-05-25T07:05:06.851Z,12.90
2019-05-25T07:07:35.349Z,13.00
2019-05-25T07:10:06.405Z,12.90
2019-05-25T07:12:34.849Z,13.00
2019-05-25T07:15:04.644Z,13.20
2019-05-25T07:17:33.139Z,13.30
2019-05-25T07:20:01.677Z,13.40
2019-05-25T07:22:30.201Z,13.50
2019-05-25T07:24:58.728Z,13.50
2019-05-25T07:27:27.186Z,13.60
2019-05-25T07:29:55.685Z,13.60
2019-05-25T07:32:24.129Z,13.50
2019-05-25T07:34:52.581Z,13.50
2019-05-25T07:37:21.204Z,13.70
2019-05-25T07:39:49.624Z,13.80
2019-05-25T07:42:19.992Z,13.80
2019-05-25T07:44:48.214Z,13.80
2019-05-25T07:47:16.661Z,13.90
2019-05-25T07:49:45.113Z,14.10
2019-05-25T07:52:13.597Z,13.90
2019-05-25T07:54:42.048Z,13.80
2019-05-25T07:57:10.501Z,13.90
2019-05-25T07:59:38.997Z,14.00
2019-05-25T08:02:07.485Z,14.10
2019-05-25T08:04:35.954Z,14.10
2019-05-25T08:07:04.437Z,14.20
2019-05-25T08:09:32.889Z,14.40
2019-05-25T08:12:01.577Z,14.60
2019-05-25T08:14:30.149Z,14.60
2019-05-25T08:16:58.589Z,14.60
2019-05-25T08:19:27.121Z,14.90
2019-05-25T08:21:55.612Z,14.70
2019-05-25T08:24:24.071Z,14.70
2019-05-25T08:26:52.564Z,14.80
2019-05-25T08:29:21.019Z,14.70
2019-05-25T08:31:49.539Z,14.90
2019-05-25T08:34:17.989Z,15.00
2019-05-25T08:36:46.504Z,15.00
2019-05-25T08:39:15.045Z,15.30
2019-05-25T08:41:45.672Z,15.60
2019-05-25T08:44:13.718Z,15.80
2019-05-25T08:46:42.145Z,15.90
2019-05-25T08:49:12.488Z,16.10
2019-05-25T08:51:40.889Z,16.00
2019-05-25T08:54:09.336Z,16.20
2019-05-25T08:56:37.976Z,16.40
2019-05-25T08:59:06.429Z,16.40
2019-05-25T09:01:34.952Z,16.60
2019-05-25T09:04:03.670Z,16.90
2019-05-25T09:06:32.172Z,16.90
2019-05-25T09:09:00.616Z,16.70
2019-05-25T09:11:29.324Z,16.90
2019-05-25T09:13:57.772Z,16.80
2019-05-25T09:16:26.212Z,16.60
2019-05-25T09:18:54.720Z,16.60
2019-05-25T09:21:23.315Z,16.80
2019-05-25T09:23:51.754Z,16.80
2019-05-25T09:26:20.349Z,16.90
2019-05-25T09:29:03.493Z,16.80
2019-05-25T09:31:18.919Z,17.00
2019-05-25T09:33:47.369Z,17.30
2019-05-25T09:36:15.861Z,17.20
2019-05-25T09:38:44.384Z,17.20
2019-05-25T09:41:12.826Z,16.70
2019-05-25T09:43:41.477Z,16.80
2019-05-25T09:46:09.972Z,17.30
2019-05-25T09:48:38.558Z,17.70
2019-05-25T09:51:15.262Z,18.00
2019-05-25T09:53:37.184Z,18.00
2019-05-25T09:56:05.634Z,18.00
2019-05-25T09:58:34.116Z,18.00
2019-05-25T10:01:02.659Z,18.20
2019-05-25T10:03:31.084Z,18.40
2019-05-25T10:05:59.536Z,18.70
2019-05-25T10:08:28.032Z,18.60
2019-05-25T10:10:56.489Z,18.50
2019-05-25T10:13:24.969Z,18.50
2019-05-25T10:15:53.505Z,18.40
2019-05-25T10:18:22.029Z,18.40
2019-05-25T10:20:50.492Z,18.30
2019-05-25T10:23:19.012Z,17.90
2019-05-25T10:25:47.456Z,17.80
2019-05-25T10:28:15.916Z,18.00
2019-05-25T10:30:44.404Z,18.00
2019-05-25T10:33:12.854Z,18.20
2019-05-25T10:35:41.504Z,18.20
2019-05-25T10:38:09.961Z,18.00
2019-05-25T10:40:38.418Z,17.60
2019-05-25T10:43:06.977Z,17.50
2019-05-25T10:45:35.429Z,17.70
2019-05-25T10:48:04.097Z,17.90
2019-05-25T10:50:32.557Z,17.70
2019-05-25T10:53:01.068Z,17.80
2019-05-25T10:55:29.633Z,17.60
2019-05-25T10:57:58.146Z,17.30
2019-05-25T11:00:27.263Z,17.50
2019-05-25T11:02:55.769Z,17.50
2019-05-25T11:05:24.228Z,17.50
2019-05-25T11:07:52.676Z,17.40
2019-05-25T11:10:21.168Z,17.30
2019-05-25T11:12:49.621Z,17.30
2019-05-25T11:15:18.117Z,17.40
2019-05-25T11:17:46.569Z,17.70
2019-05-25T11:20:15.125Z,17.80
2019-05-25T11:22:43.590Z,17.70
2019-05-25T11:25:12.201Z,17.90
2019-05-25T11:27:40.693Z,18.30
2019-05-25T11:30:10.318Z,18.40
2019-05-25T11:32:38.967Z,18.60
2019-05-25T11:35:08.045Z,18.60
2019-05-25T11:37:36.489Z,18.70
2019-05-25T11:40:08.054Z,18.40
2019-05-25T11:42:36.517Z,18.30
2019-05-25T11:45:07.697Z,18.30
2019-05-25T11:47:36.145Z,18.10
2019-05-25T11:50:08.003Z,18.00
2019-05-25T11:52:36.484Z,17.70
2019-05-25T11:55:08.459Z,17.80
2019-05-25T11:57:36.919Z,18.00
2019-05-25T12:00:23.341Z,18.10
2019-05-25T12:02:38.189Z,18.00
2019-05-25T12:05:07.577Z,18.00
2019-05-25T12:07:36.101Z,18.00
2019-05-25T12:10:05.646Z,18.30
2019-05-25T12:12:34.230Z,18.40
2019-05-25T12:15:02.688Z,18.40
2019-05-25T12:17:31.169Z,18.20
2019-05-25T12:19:59.658Z,18.20
2019-05-25T12:22:28.178Z,18.50
2019-05-25T12:24:56.674Z,18.50
2019-05-25T12:27:25.117Z,18.30
2019-05-25T12:29:53.571Z,18.30
2019-05-25T12:32:22.083Z,18.20
2019-05-25T12:34:50.530Z,18.40
2019-05-25T12:37:18.965Z,18.50
2019-05-25T12:39:47.464Z,18.70
2019-05-25T12:42:15.950Z,18.80
2019-05-25T12:44:44.386Z,18.90
2019-05-25T12:47:12.837Z,18.50
2019-05-25T12:49:50.675Z,18.50
2019-05-25T12:52:11.433Z,18.50
2019-05-25T12:54:39.887Z,18.70
2019-05-25T12:57:08.369Z,19.10
2019-05-25T12:59:36.874Z,19.30
2019-05-25T13:02:05.585Z,19.70
2019-05-25T13:04:34.035Z,20.00
2019-05-25T13:07:02.613Z,19.90
2019-05-25T13:09:31.066Z,19.40
2019-05-25T13:11:59.514Z,19.70
2019-05-25T13:14:28.000Z,19.40
2019-05-25T13:16:56.561Z,19.10
2019-05-25T13:19:25.064Z,19.10
2019-05-25T13:21:53.581Z,19.10
2019-05-25T13:24:22.054Z,19.00
2019-05-25T13:26:50.500Z,18.50
2019-05-25T13:29:19.002Z,18.50
2019-05-25T13:31:47.449Z,18.10
2019-05-25T13:34:15.902Z,18.00
2019-05-25T13:36:44.417Z,17.90
2019-05-25T13:39:12.908Z,18.00
2019-05-25T13:41:41.433Z,17.90
2019-05-25T13:44:09.939Z,17.90
2019-05-25T13:46:38.454Z,18.10
2019-05-25T13:49:06.902Z,18.00
2019-05-25T13:51:37.101Z,18.20
2019-05-25T13:54:05.551Z,18.10
2019-05-25T13:56:34.019Z,18.10
2019-05-25T13:59:02.509Z,18.00
2019-05-25T14:01:30.960Z,18.10
2019-05-25T14:03:59.428Z,18.40
2019-05-25T14:06:27.925Z,18.90
2019-05-25T14:08:56.377Z,19.40
2019-05-25T14:11:24.884Z,19.70
2019-05-25T14:13:53.317Z,19.60
2019-05-25T14:16:21.770Z,19.30
2019-05-25T14:18:50.324Z,18.90
2019-05-25T14:21:18.775Z,18.90
2019-05-25T14:23:47.217Z,18.80
2019-05-25T14:26:15.724Z,18.80
2019-05-25T14:28:44.170Z,18.30
2019-05-25T14:31:12.645Z,18.00
2019-05-25T14:33:41.206Z,18.10
2019-05-25T14:36:09.649Z,18.10
2019-05-25T14:38:38.160Z,18.10
2019-05-25T14:41:06.601Z,17.90
2019-05-25T14:43:35.117Z,18.00
2019-05-25T14:46:03.611Z,18.00
2019-05-25T14:48:32.121Z,18.10
2019-05-25T14:51:00.564Z,18.10
2019-05-25T14:53:29.052Z,18.30
2019-05-25T14:55:57.502Z,18.50
2019-05-25T14:58:25.945Z,19.10
2019-05-25T15:00:54.450Z,19.60
2019-05-25T15:03:22.969Z,19.10
2019-05-25T15:05:51.511Z,19.00
2019-05-25T15:08:20.001Z,19.20
2019-05-25T15:10:48.447Z,19.10
2019-05-25T15:13:16.933Z,18.60
2019-05-25T15:15:45.381Z,18.30
2019-05-25T15:18:13.862Z,18.10
2019-05-25T15:20:44.709Z,18.10
2019-05-25T15:23:13.214Z,18.30
2019-05-25T15:25:41.666Z,18.70
2019-05-25T15:28:10.118Z,19.10
2019-05-25T15:30:38.609Z,18.80
2019-05-25T15:33:07.057Z,18.80
2019-05-25T15:35:35.516Z,19.00
2019-05-25T15:38:04.018Z,19.50
2019-05-25T15:40:32.469Z,19.70
2019-05-25T15:43:03.791Z,19.90
2019-05-25T15:45:32.311Z,19.70
2019-05-25T15:48:00.748Z,19.70
2019-05-25T15:50:29.246Z,19.90
2019-05-25T15:52:57.833Z,20.00
2019-05-25T15:55:26.310Z,20.20
2019-05-25T15:57:54.814Z,20.20
2019-05-25T16:00:26.522Z,20.20
2019-05-25T16:02:55.179Z,19.90
2019-05-25T16:05:23.700Z,19.50
2019-05-25T16:07:52.158Z,18.90
2019-05-25T16:10:20.758Z,18.50
2019-05-25T16:12:49.253Z,18.20
2019-05-25T16:15:21.008Z,18.20
2019-05-25T16:17:49.457Z,18.10
2019-05-25T16:20:21.214Z,17.90
2019-05-25T16:22:49.772Z,18.10
2019-05-25T16:25:18.346Z,18.30
2019-05-25T16:27:46.834Z,18.40
2019-05-25T16:30:15.297Z,18.20
2019-05-25T16:35:13.966Z,18.10
2019-05-25T16:37:42.711Z,17.80
2019-05-25T16:40:11.364Z,17.90
2019-05-25T16:42:39.957Z,18.20
2019-05-25T16:45:09.241Z,18.60
2019-05-25T16:47:37.693Z,19.00
2019-05-25T16:50:08.123Z,19.20
2019-05-25T16:52:36.625Z,19.10
2019-05-25T16:55:08.527Z,19.00
2019-05-25T16:57:36.942Z,19.60
2019-05-25T17:00:07.205Z,20.00
2019-05-25T17:02:35.661Z,20.10
2019-05-25T17:05:04.477Z,20.40
2019-05-25T17:07:32.965Z,20.60
2019-05-25T17:10:01.482Z,20.70
2019-05-25T17:12:29.928Z,20.80
2019-05-25T17:14:58.417Z,20.60
2019-05-25T17:17:26.915Z,20.60
2019-05-25T17:19:55.361Z,20.40
2019-05-25T17:22:23.875Z,20.50
2019-05-25T17:24:52.394Z,20.20
2019-05-25T17:27:20.837Z,19.40
2019-05-25T17:29:49.285Z,19.00
2019-05-25T17:32:17.777Z,18.30
2019-05-25T17:34:46.217Z,17.90
2019-05-25T17:37:14.661Z,17.60
2019-05-25T17:39:43.153Z,17.40
2019-05-25T17:42:11.593Z,17.20
2019-05-25T17:44:40.178Z,17.00
2019-05-25T17:47:08.617Z,16.90
2019-05-25T17:49:37.146Z,16.80
2019-05-25T17:52:05.645Z,16.80
2019-05-25T17:54:34.174Z,16.80
2019-05-25T17:57:02.685Z,16.80
2019-05-25T17:59:31.189Z,16.80
2019-05-25T18:01:59.711Z,16.90
2019-05-25T18:04:28.220Z,17.00
2019-05-25T18:06:56.701Z,17.00
2019-05-25T18:09:25.214Z,17.00
2019-05-25T18:11:53.648Z,17.00
2019-05-25T18:14:22.098Z,17.00
2019-05-25T18:16:50.614Z,16.90
2019-05-25T18:19:19.062Z,16.80
2019-05-25T18:21:47.504Z,16.90
2019-05-25T18:24:16.107Z,16.90
2019-05-25T18:26:44.593Z,16.90
2019-05-25T18:29:13.042Z,16.90
2019-05-25T18:31:41.558Z,16.70
2019-05-25T18:34:21.744Z,16.50
2019-05-25T18:36:40.108Z,16.50
2019-05-25T18:39:08.607Z,16.50
2019-05-25T18:41:37.058Z,16.60
2019-05-25T18:44:05.549Z,16.60
2019-05-25T18:46:33.999Z,16.60
2019-05-25T18:49:02.450Z,16.70
2019-05-25T18:51:30.945Z,16.70
2019-05-25T18:53:59.471Z,16.70
2019-05-25T18:56:27.921Z,16.60
2019-05-25T18:58:56.749Z,16.60
2019-05-25T19:01:25.420Z,16.70
2019-05-25T19:03:53.918Z,16.60
2019-05-25T19:06:22.368Z,16.60
2019-05-25T19:08:50.855Z,16.60
2019-05-25T19:11:19.361Z,16.50
2019-05-25T19:13:48.028Z,16.50
2019-05-25T19:16:16.480Z,16.40
2019-05-25T19:18:44.973Z,16.40
2019-05-25T19:21:13.421Z,16.40
2019-05-25T19:23:41.862Z,16.40
2019-05-25T19:26:10.360Z,16.50
2019-05-25T19:28:38.877Z,16.50
2019-05-25T19:31:07.373Z,16.40
2019-05-25T19:33:35.821Z,16.40
2019-05-25T19:36:04.272Z,16.30
2019-05-25T19:38:32.756Z,16.10
2019-05-25T19:41:01.278Z,16.10
2019-05-25T19:43:29.781Z,16.00
2019-05-25T19:45:58.234Z,16.00
2019-05-25T19:48:26.715Z,15.80
2019-05-25T19:50:56.364Z,15.70
2019-05-25T19:53:24.936Z,15.60
2019-05-25T19:55:53.389Z,15.40
2019-05-25T19:58:21.971Z,15.30
2019-05-25T20:00:51.703Z,15.20
2019-05-25T20:03:20.216Z,15.20
2019-05-25T20:05:48.660Z,15.10
2019-05-25T20:08:17.157Z,15.20
2019-05-25T20:10:45.664Z,15.20
2019-05-25T20:13:14.185Z,15.20
2019-05-25T20:15:42.694Z,15.20
2019-05-25T20:18:11.145Z,15.10
2019-05-25T20:20:39.602Z,15.00
2019-05-25T20:23:08.162Z,15.00
2019-05-25T20:25:36.616Z,14.90
2019-05-25T20:28:05.121Z,14.90
2019-05-25T20:30:33.560Z,14.80
2019-05-25T20:33:02.025Z,14.70
2019-05-25T20:35:33.456Z,14.60
2019-05-25T20:38:00.627Z,14.60
2019-05-25T20:40:29.076Z,14.50
2019-05-25T20:42:57.605Z,14.50
2019-05-25T20:45:26.048Z,14.40
2019-05-25T20:47:54.536Z,14.30
2019-05-25T20:50:23.041Z,14.30
2019-05-25T20:52:51.517Z,14.20
2019-05-25T20:55:19.953Z,14.10
2019-05-25T20:57:48.454Z,14.00
2019-05-25T21:00:16.905Z,13.90
2019-05-25T21:02:45.555Z,13.90
2019-05-25T21:05:14.077Z,13.90
2019-05-25T21:07:42.532Z,13.80
2019-05-25T21:10:11.527Z,13.80
2019-05-25T21:12:39.957Z,13.80
2019-05-25T21:15:08.440Z,13.80
2019-05-25T21:17:36.888Z,13.80
2019-05-25T21:20:06.254Z,13.70
2019-05-25T21:22:34.700Z,13.60
2019-05-25T21:25:05.940Z,13.50
2019-05-25T21:27:34.571Z,13.50
2019-05-25T21:30:03.130Z,13.40
2019-05-25T21:32:31.607Z,13.40
2019-05-25T21:35:00.104Z,13.40
2019-05-25T21:37:28.540Z,13.30
2019-05-25T21:39:57.019Z,13.30
2019-05-25T21:42:25.509Z,13.30
2019-05-25T21:44:53.960Z,13.20
2019-05-25T21:47:22.404Z,13.20
2019-05-25T21:49:50.925Z,13.10
2019-05-25T21:52:19.366Z,13.10
2019-05-25T21:54:47.813Z,13.00
2019-05-25T21:57:16.333Z,13.00
2019-05-25T21:59:44.779Z,13.00
2019-05-25T22:02:13.230Z,12.90
2019-05-25T22:04:41.742Z,12.90
2019-05-25T22:07:10.259Z,12.80
2019-05-25T22:09:38.878Z,12.80
2019-05-25T22:12:07.384Z,12.80
2019-05-25T22:14:35.820Z,12.70
2019-05-25T22:17:04.269Z,12.60
2019-05-25T22:19:32.817Z,12.60
2019-05-25T22:22:01.314Z,12.50
2019-05-25T22:24:29.806Z,12.50
2019-05-25T22:26:58.250Z,12.50
2019-05-25T22:29:26.709Z,12.40
2019-05-25T22:31:56.277Z,12.50
2019-05-25T22:34:24.733Z,12.50
2019-05-25T22:36:55.130Z,12.40
2019-05-25T22:39:24.043Z,12.40
2019-05-25T22:41:54.250Z,12.40
2019-05-25T22:44:22.710Z,12.30
2019-05-25T22:46:51.197Z,12.30
2019-05-25T22:49:19.645Z,12.30
2019-05-25T22:51:48.086Z,12.30
2019-05-25T22:54:17.140Z,12.30
2019-05-25T22:56:45.584Z,12.30
2019-05-25T22:59:14.033Z,12.30
2019-05-25T23:01:42.529Z,12.30
2019-05-25T23:04:10.976Z,12.40
2019-05-25T23:06:56.113Z,12.40
2019-05-25T23:09:09.552Z,12.50
2019-05-25T23:11:38.046Z,12.40
2019-05-25T23:14:09.711Z,12.40
2019-05-25T23:16:36.585Z,12.30
2019-05-25T23:19:05.161Z,12.30
2019-05-25T23:21:33.605Z,12.30
2019-05-25T23:24:02.053Z,12.30
2019-05-25T23:26:30.548Z,12.30
2019-05-25T23:28:58.999Z,12.30
2019-05-25T23:31:27.444Z,12.40
2019-05-25T23:33:55.925Z,12.30
2019-05-25T23:36:24.413Z,12.30
2019-05-25T23:38:52.900Z,12.20
2019-05-25T23:41:21.411Z,12.20
2019-05-25T23:43:49.848Z,12.30
2019-05-25T23:46:18.297Z,12.30
2019-05-25T23:48:46.793Z,12.30
2019-05-25T23:51:15.232Z,12.30
2019-05-25T23:53:43.680Z,12.30
2019-05-25T23:56:12.177Z,12.40
2019-05-25T23:58:40.625Z,12.40
